sensor_id;sensor_type;location;lat;lon;timestamp;pressure;altitude;pressure_sealevel;temperature;humidity
38038;BME280;23843;51.320;12.340;2022-08-07T04:31:10;101285.97;;;16.72;48.93
38038;BME280;23843;51.320;12.340;2022-08-07T04:33:36;101289.03;;;17.07;48.51
38038;BME280;23843;51.320;12.340;2022-08-07T04:36:02;101290.09;;;17.44;48.22
38038;BME280;23843;51.320;12.340;2022-08-07T04:38:28;101297.41;;;17.68;48.06
38038;BME280;23843;51.320;12.340;2022-08-07T04:40:53;101294.00;;;17.91;48.03
38038;BME280;23843;51.320;12.340;2022-08-07T04:43:21;101301.19;;;18.29;46.91
38038;BME280;23843;51.320;12.340;2022-08-07T04:45:53;101300.69;;;18.61;46.84
38038;BME280;23843;51.320;12.340;2022-08-07T04:48:26;101291.81;;;18.85;46.01
38038;BME280;23843;51.320;12.340;2022-08-07T04:51:00;101294.34;;;18.99;45.59
38038;BME280;23843;51.320;12.340;2022-08-07T04:53:34;101293.56;;;19.21;45.44
38038;BME280;23843;51.320;12.340;2022-08-07T04:56:06;101295.88;;;19.50;44.91
38038;BME280;23843;51.320;12.340;2022-08-07T04:58:39;101296.47;;;19.88;44.14
38038;BME280;23843;51.320;12.340;2022-08-07T05:01:10;101302.22;;;20.06;43.84
38038;BME280;23843;51.320;12.340;2022-08-07T05:03:44;101299.16;;;20.34;43.55
38038;BME280;23843;51.320;12.340;2022-08-07T05:06:13;101300.28;;;20.31;42.18
38038;BME280;23843;51.320;12.340;2022-08-07T05:08:44;101308.72;;;20.38;42.18
38038;BME280;23843;51.320;12.340;2022-08-07T05:11:13;101306.50;;;20.43;41.23
38038;BME280;23843;51.320;12.340;2022-08-07T05:13:45;101311.06;;;20.53;40.76
38038;BME280;23843;51.320;12.340;2022-08-07T05:16:14;101311.53;;;20.47;39.80
38038;BME280;23843;51.320;12.340;2022-08-07T05:18:49;101313.38;;;20.36;41.06
38038;BME280;23843;51.320;12.340;2022-08-07T05:21:20;101303.50;;;20.59;41.12
38038;BME280;23843;51.320;12.340;2022-08-07T05:23:50;101304.91;;;20.85;40.78
38038;BME280;23843;51.320;12.340;2022-08-07T05:26:19;101310.78;;;21.11;39.62
38038;BME280;23843;51.320;12.340;2022-08-07T05:28:48;101309.16;;;21.31;39.39
38038;BME280;23843;51.320;12.340;2022-08-07T05:31:15;101301.78;;;21.66;38.93
38038;BME280;23843;51.320;12.340;2022-08-07T05:33:44;101310.50;;;22.31;37.58
38038;BME280;23843;51.320;12.340;2022-08-07T05:36:10;101309.88;;;22.58;36.06
38038;BME280;23843;51.320;12.340;2022-08-07T05:38:38;101306.81;;;22.92;36.25
38038;BME280;23843;51.320;12.340;2022-08-07T05:41:04;101315.00;;;23.21;36.38
38038;BME280;23843;51.320;12.340;2022-08-07T05:43:30;101313.56;;;23.56;36.26
38038;BME280;23843;51.320;12.340;2022-08-07T05:45:55;101318.09;;;24.31;34.72
38038;BME280;23843;51.320;12.340;2022-08-07T05:48:22;101316.22;;;24.69;35.49
38038;BME280;23843;51.320;12.340;2022-08-07T05:50:50;101312.63;;;25.14;32.69
38038;BME280;23843;51.320;12.340;2022-08-07T05:53:15;101309.34;;;25.65;34.43
38038;BME280;23843;51.320;12.340;2022-08-07T05:55:41;101311.97;;;26.26;33.22
38038;BME280;23843;51.320;12.340;2022-08-07T05:58:09;101310.16;;;26.78;30.01
38038;BME280;23843;51.320;12.340;2022-08-07T06:00:36;101311.44;;;27.57;29.87
38038;BME280;23843;51.320;12.340;2022-08-07T06:03:04;101312.59;;;28.04;29.11
38038;BME280;23843;51.320;12.340;2022-08-07T06:05:30;101312.66;;;28.51;28.08
38038;BME280;23843;51.320;12.340;2022-08-07T06:07:58;101316.38;;;28.90;25.15
38038;BME280;23843;51.320;12.340;2022-08-07T06:10:25;101308.75;;;28.37;23.80
38038;BME280;23843;51.320;12.340;2022-08-07T06:12:51;101306.94;;;28.22;26.29
38038;BME280;23843;51.320;12.340;2022-08-07T06:15:17;101312.16;;;29.10;27.00
38038;BME280;23843;51.320;12.340;2022-08-07T06:17:43;101306.72;;;29.71;24.95
38038;BME280;23843;51.320;12.340;2022-08-07T06:20:10;101302.22;;;29.93;26.21
38038;BME280;23843;51.320;12.340;2022-08-07T06:22:36;101303.69;;;30.34;25.01
38038;BME280;23843;51.320;12.340;2022-08-07T06:25:04;101301.56;;;30.65;24.11
38038;BME280;23843;51.320;12.340;2022-08-07T06:27:30;101305.44;;;31.35;23.20
38038;BME280;23843;51.320;12.340;2022-08-07T06:29:55;101306.41;;;31.71;23.98
38038;BME280;23843;51.320;12.340;2022-08-07T06:32:21;101304.53;;;32.00;23.95
38038;BME280;23843;51.320;12.340;2022-08-07T06:34:46;101301.47;;;32.51;22.27
38038;BME280;23843;51.320;12.340;2022-08-07T06:37:12;101304.66;;;32.26;21.47
38038;BME280;23843;51.320;12.340;2022-08-07T06:39:37;101313.16;;;32.31;21.60
38038;BME280;23843;51.320;12.340;2022-08-07T06:42:06;101313.91;;;32.18;21.87
38038;BME280;23843;51.320;12.340;2022-08-07T06:44:33;101308.50;;;32.32;21.88
38038;BME280;23843;51.320;12.340;2022-08-07T06:46:59;101317.81;;;32.86;21.13
38038;BME280;23843;51.320;12.340;2022-08-07T06:49:25;101312.66;;;33.44;21.39
38038;BME280;23843;51.320;12.340;2022-08-07T06:51:51;101319.19;;;33.43;20.61
38038;BME280;23843;51.320;12.340;2022-08-07T06:54:19;101313.94;;;33.21;19.31
38038;BME280;23843;51.320;12.340;2022-08-07T06:56:45;101318.47;;;32.94;20.80
38038;BME280;23843;51.320;12.340;2022-08-07T06:59:15;101318.84;;;32.71;18.80
38038;BME280;23843;51.320;12.340;2022-08-07T07:01:41;101308.66;;;32.65;20.69
38038;BME280;23843;51.320;12.340;2022-08-07T07:04:08;101315.09;;;32.92;21.50
38038;BME280;23843;51.320;12.340;2022-08-07T07:06:34;101303.38;;;33.85;20.85
38038;BME280;23843;51.320;12.340;2022-08-07T07:09:19;101309.34;;;34.92;19.47
38038;BME280;23843;51.320;12.340;2022-08-07T07:11:57;101310.44;;;34.39;19.96
38038;BME280;23843;51.320;12.340;2022-08-07T07:14:27;101307.31;;;34.29;19.06
38038;BME280;23843;51.320;12.340;2022-08-07T07:16:55;101302.97;;;33.61;18.79
38038;BME280;23843;51.320;12.340;2022-08-07T07:19:28;101312.75;;;32.82;21.24
38038;BME280;23843;51.320;12.340;2022-08-07T07:21:55;101307.59;;;32.18;19.23
38038;BME280;23843;51.320;12.340;2022-08-07T07:24:20;101308.50;;;31.69;21.33
38038;BME280;23843;51.320;12.340;2022-08-07T07:26:50;101304.25;;;31.17;19.88
38038;BME280;23843;51.320;12.340;2022-08-07T07:29:21;101302.25;;;30.89;23.19
38038;BME280;23843;51.320;12.340;2022-08-07T07:31:49;101298.41;;;31.48;21.95
38038;BME280;23843;51.320;12.340;2022-08-07T07:34:22;101296.25;;;31.65;22.69
38038;BME280;23843;51.320;12.340;2022-08-07T07:36:49;101297.00;;;31.80;21.89
38038;BME280;23843;51.320;12.340;2022-08-07T07:39:16;101297.06;;;31.59;21.38
38038;BME280;23843;51.320;12.340;2022-08-07T07:41:44;101294.34;;;31.65;21.06
38038;BME280;23843;51.320;12.340;2022-08-07T07:44:12;101292.97;;;31.76;21.02
38038;BME280;23843;51.320;12.340;2022-08-07T07:46:40;101296.00;;;32.23;21.00
38038;BME280;23843;51.320;12.340;2022-08-07T07:49:10;101281.16;;;33.33;20.82
38038;BME280;23843;51.320;12.340;2022-08-07T07:51:39;101285.81;;;35.78;18.49
38038;BME280;23843;51.320;12.340;2022-08-07T07:54:07;101281.16;;;36.71;16.89
38038;BME280;23843;51.320;12.340;2022-08-07T07:56:33;101281.69;;;37.92;16.91
38038;BME280;23843;51.320;12.340;2022-08-07T07:59:00;101273.19;;;39.20;14.84
38038;BME280;23843;51.320;12.340;2022-08-07T08:01:27;101275.91;;;39.49;13.57
38038;BME280;23843;51.320;12.340;2022-08-07T08:03:54;101271.78;;;39.34;12.86
38038;BME280;23843;51.320;12.340;2022-08-07T08:06:22;101266.75;;;39.48;14.46
38038;BME280;23843;51.320;12.340;2022-08-07T08:08:51;101262.53;;;39.46;13.25
38038;BME280;23843;51.320;12.340;2022-08-07T08:11:17;101269.16;;;40.67;14.04
38038;BME280;23843;51.320;12.340;2022-08-07T08:13:47;101266.69;;;40.70;11.81
38038;BME280;23843;51.320;12.340;2022-08-07T08:16:15;101264.75;;;40.43;11.72
38038;BME280;23843;51.320;12.340;2022-08-07T08:18:43;101264.94;;;41.18;13.41
38038;BME280;23843;51.320;12.340;2022-08-07T08:21:10;101269.47;;;41.62;12.04
38038;BME280;23843;51.320;12.340;2022-08-07T08:23:39;101262.19;;;43.17;12.01
38038;BME280;23843;51.320;12.340;2022-08-07T08:26:08;101258.72;;;43.87;11.55
38038;BME280;23843;51.320;12.340;2022-08-07T08:28:38;101257.78;;;44.22;11.46
38038;BME280;23843;51.320;12.340;2022-08-07T08:31:07;101262.75;;;45.20;9.17
38038;BME280;23843;51.320;12.340;2022-08-07T08:33:35;101260.38;;;45.32;9.40
38038;BME280;23843;51.320;12.340;2022-08-07T08:36:04;101258.41;;;46.10;7.34
38038;BME280;23843;51.320;12.340;2022-08-07T08:38:35;101262.31;;;44.58;7.87
38038;BME280;23843;51.320;12.340;2022-08-07T08:41:10;101262.50;;;43.31;9.46
38038;BME280;23843;51.320;12.340;2022-08-07T08:43:44;101255.09;;;43.92;8.82
38038;BME280;23843;51.320;12.340;2022-08-07T08:46:15;101253.63;;;45.04;8.57
38038;BME280;23843;51.320;12.340;2022-08-07T08:48:48;101246.13;;;47.01;8.65
38038;BME280;23843;51.320;12.340;2022-08-07T08:51:26;101246.63;;;47.22;7.98
38038;BME280;23843;51.320;12.340;2022-08-07T08:54:01;101250.56;;;47.21;6.06
38038;BME280;23843;51.320;12.340;2022-08-07T08:56:35;101250.75;;;44.30;6.75
38038;BME280;23843;51.320;12.340;2022-08-07T08:59:06;101245.44;;;43.17;7.89
38038;BME280;23843;51.320;12.340;2022-08-07T09:01:40;101245.38;;;41.83;9.45
38038;BME280;23843;51.320;12.340;2022-08-07T09:04:16;101235.69;;;42.84;9.88
38038;BME280;23843;51.320;12.340;2022-08-07T09:06:51;101242.81;;;45.50;8.59
38038;BME280;23843;51.320;12.340;2022-08-07T09:09:30;101241.09;;;46.65;5.82
38038;BME280;23843;51.320;12.340;2022-08-07T09:12:10;101249.06;;;43.54;7.25
38038;BME280;23843;51.320;12.340;2022-08-07T09:14:41;101232.28;;;44.34;7.08
38038;BME280;23843;51.320;12.340;2022-08-07T09:17:24;101242.50;;;45.28;7.64
38038;BME280;23843;51.320;12.340;2022-08-07T09:19:56;101224.00;;;46.47;7.25
38038;BME280;23843;51.320;12.340;2022-08-07T09:22:46;101225.91;;;45.66;7.54
38038;BME280;23843;51.320;12.340;2022-08-07T09:25:21;101230.50;;;45.52;7.14
38038;BME280;23843;51.320;12.340;2022-08-07T09:27:56;101229.44;;;45.47;7.47
38038;BME280;23843;51.320;12.340;2022-08-07T09:30:26;101225.03;;;44.78;6.56
38038;BME280;23843;51.320;12.340;2022-08-07T09:33:05;101232.63;;;42.96;7.88
38038;BME280;23843;51.320;12.340;2022-08-07T09:35:39;101220.66;;;42.95;7.44
38038;BME280;23843;51.320;12.340;2022-08-07T09:38:12;101214.91;;;42.13;8.82
38038;BME280;23843;51.320;12.340;2022-08-07T09:40:49;101219.53;;;41.07;9.83
38038;BME280;23843;51.320;12.340;2022-08-07T09:43:24;101213.28;;;40.63;9.96
38038;BME280;23843;51.320;12.340;2022-08-07T09:45:57;101205.75;;;37.71;11.07
38038;BME280;23843;51.320;12.340;2022-08-07T09:48:33;101205.25;;;37.51;11.53
38038;BME280;23843;51.320;12.340;2022-08-07T09:51:08;101204.09;;;36.81;12.67
38038;BME280;23843;51.320;12.340;2022-08-07T09:53:39;101198.13;;;35.87;13.47
38038;BME280;23843;51.320;12.340;2022-08-07T09:56:32;101203.16;;;34.39;13.62
38038;BME280;23843;51.320;12.340;2022-08-07T09:59:18;101197.22;;;33.91;14.63
38038;BME280;23843;51.320;12.340;2022-08-07T10:02:04;101191.53;;;32.59;15.96
38038;BME280;23843;51.320;12.340;2022-08-07T10:04:59;101189.94;;;32.23;16.51
38038;BME280;23843;51.320;12.340;2022-08-07T10:07:42;101187.66;;;31.92;16.01
38038;BME280;23843;51.320;12.340;2022-08-07T10:10:18;101188.38;;;31.09;16.71
38038;BME280;23843;51.320;12.340;2022-08-07T10:12:58;101188.22;;;30.53;16.62
38038;BME280;23843;51.320;12.340;2022-08-07T10:15:45;101181.72;;;30.76;16.32
38038;BME280;23843;51.320;12.340;2022-08-07T10:18:23;101178.78;;;30.77;16.38
38038;BME280;23843;51.320;12.340;2022-08-07T10:21:06;101176.75;;;30.43;17.24
38038;BME280;23843;51.320;12.340;2022-08-07T10:23:48;101166.13;;;29.67;17.48
38038;BME280;23843;51.320;12.340;2022-08-07T10:26:31;101158.56;;;29.99;17.59
38038;BME280;23843;51.320;12.340;2022-08-07T10:29:14;101156.69;;;29.84;17.69
38038;BME280;23843;51.320;12.340;2022-08-07T10:31:52;101146.31;;;29.35;18.60
38038;BME280;23843;51.320;12.340;2022-08-07T10:34:41;101153.22;;;29.31;18.89
38038;BME280;23843;51.320;12.340;2022-08-07T10:37:38;101138.16;;;28.74;18.90
38038;BME280;23843;51.320;12.340;2022-08-07T10:40:11;101162.69;;;27.97;18.61
38038;BME280;23843;51.320;12.340;2022-08-07T10:42:40;101153.94;;;28.02;19.26
38038;BME280;23843;51.320;12.340;2022-08-07T10:45:30;101135.97;;;27.28;20.62
38038;BME280;23843;51.320;12.340;2022-08-07T10:48:12;101138.56;;;26.64;21.08
38038;BME280;23843;51.320;12.340;2022-08-07T10:50:41;101135.16;;;26.87;21.46
38038;BME280;23843;51.320;12.340;2022-08-07T10:53:11;101138.72;;;27.12;20.79
38038;BME280;23843;51.320;12.340;2022-08-07T10:55:43;101128.81;;;27.44;20.61
38038;BME280;23843;51.320;12.340;2022-08-07T10:58:16;101126.44;;;27.16;20.69
38038;BME280;23843;51.320;12.340;2022-08-07T11:00:48;101109.59;;;27.37;20.13
38038;BME280;23843;51.320;12.340;2022-08-07T11:03:25;101109.66;;;27.68;19.71
38038;BME280;23843;51.320;12.340;2022-08-07T11:05:59;101131.25;;;27.78;20.57
38038;BME280;23843;51.320;12.340;2022-08-07T11:08:33;101124.78;;;26.74;21.47
38038;BME280;23843;51.320;12.340;2022-08-07T11:11:07;101107.81;;;26.56;21.33
38038;BME280;23843;51.320;12.340;2022-08-07T11:13:36;101114.94;;;26.57;21.51
38038;BME280;23843;51.320;12.340;2022-08-07T11:16:06;101114.53;;;26.27;21.95
38038;BME280;23843;51.320;12.340;2022-08-07T11:18:38;101116.31;;;25.86;22.23
38038;BME280;23843;51.320;12.340;2022-08-07T11:21:10;101099.44;;;25.82;22.48
38038;BME280;23843;51.320;12.340;2022-08-07T11:23:45;101100.88;;;25.52;22.37
38038;BME280;23843;51.320;12.340;2022-08-07T11:26:20;101091.13;;;25.75;22.58
38038;BME280;23843;51.320;12.340;2022-08-07T11:28:55;101103.09;;;25.91;22.49
38038;BME280;23843;51.320;12.340;2022-08-07T11:31:25;101091.72;;;25.95;21.85
38038;BME280;23843;51.320;12.340;2022-08-07T11:33:59;101079.88;;;26.13;21.44
38038;BME280;23843;51.320;12.340;2022-08-07T11:36:37;101074.63;;;26.11;21.40
38038;BME280;23843;51.320;12.340;2022-08-07T11:39:12;101078.38;;;26.18;21.48
38038;BME280;23843;51.320;12.340;2022-08-07T11:41:43;101086.31;;;25.95;21.55
38038;BME280;23843;51.320;12.340;2022-08-07T11:44:17;101078.06;;;25.79;21.34
38038;BME280;23843;51.320;12.340;2022-08-07T11:46:56;101074.66;;;25.77;21.35
38038;BME280;23843;51.320;12.340;2022-08-07T11:49:46;101063.59;;;25.62;21.48
38038;BME280;23843;51.320;12.340;2022-08-07T11:52:30;101067.22;;;25.79;20.53
38038;BME280;23843;51.320;12.340;2022-08-07T11:55:03;101062.47;;;25.81;21.77
38038;BME280;23843;51.320;12.340;2022-08-07T11:57:39;101054.00;;;25.84;21.61
38038;BME280;23843;51.320;12.340;2022-08-07T12:00:09;101053.44;;;25.64;22.11
38038;BME280;23843;51.320;12.340;2022-08-07T12:02:50;101061.94;;;25.77;21.41
38038;BME280;23843;51.320;12.340;2022-08-07T12:05:26;101054.00;;;25.84;21.73
38038;BME280;23843;51.320;12.340;2022-08-07T12:07:56;101057.44;;;25.86;21.34
38038;BME280;23843;51.320;12.340;2022-08-07T12:10:27;101065.19;;;25.81;22.14
38038;BME280;23843;51.320;12.340;2022-08-07T12:12:59;101052.03;;;25.52;22.31
38038;BME280;23843;51.320;12.340;2022-08-07T12:15:30;101056.16;;;25.22;22.28
38038;BME280;23843;51.320;12.340;2022-08-07T12:17:59;101046.03;;;25.14;21.99
38038;BME280;23843;51.320;12.340;2022-08-07T12:20:33;101047.34;;;25.28;22.58
38038;BME280;23843;51.320;12.340;2022-08-07T12:23:13;101046.66;;;25.26;22.47
38038;BME280;23843;51.320;12.340;2022-08-07T12:25:45;101052.06;;;25.26;22.20
38038;BME280;23843;51.320;12.340;2022-08-07T12:28:15;101044.47;;;25.29;22.28
38038;BME280;23843;51.320;12.340;2022-08-07T12:30:44;101036.00;;;25.32;22.02
38038;BME280;23843;51.320;12.340;2022-08-07T12:33:15;101045.59;;;25.18;22.31
38038;BME280;23843;51.320;12.340;2022-08-07T12:35:44;101032.75;;;25.29;22.54
38038;BME280;23843;51.320;12.340;2022-08-07T12:38:12;101040.13;;;25.36;21.85
38038;BME280;23843;51.320;12.340;2022-08-07T12:40:40;101032.34;;;25.41;21.43
38038;BME280;23843;51.320;12.340;2022-08-07T12:43:08;101026.94;;;25.50;21.64
38038;BME280;23843;51.320;12.340;2022-08-07T12:45:42;101029.00;;;25.56;22.27
38038;BME280;23843;51.320;12.340;2022-08-07T12:48:13;101025.72;;;25.44;22.23
38038;BME280;23843;51.320;12.340;2022-08-07T12:50:47;101011.50;;;25.50;21.85
38038;BME280;23843;51.320;12.340;2022-08-07T12:53:22;101012.38;;;25.59;22.44
38038;BME280;23843;51.320;12.340;2022-08-07T12:55:58;101010.50;;;25.59;22.36
38038;BME280;23843;51.320;12.340;2022-08-07T12:58:33;101012.09;;;25.70;23.39
38038;BME280;23843;51.320;12.340;2022-08-07T13:01:06;101005.78;;;25.61;22.65
38038;BME280;23843;51.320;12.340;2022-08-07T13:03:51;101007.59;;;25.53;22.85
38038;BME280;23843;51.320;12.340;2022-08-07T13:06:29;101005.00;;;25.35;23.29
38038;BME280;23843;51.320;12.340;2022-08-07T13:09:01;101004.66;;;25.38;23.34
38038;BME280;23843;51.320;12.340;2022-08-07T13:11:44;100999.78;;;25.41;23.17
38038;BME280;23843;51.320;12.340;2022-08-07T13:14:20;100997.78;;;25.52;23.14
38038;BME280;23843;51.320;12.340;2022-08-07T13:16:59;100992.91;;;25.63;22.79
38038;BME280;23843;51.320;12.340;2022-08-07T13:19:33;100994.25;;;25.68;22.87
38038;BME280;23843;51.320;12.340;2022-08-07T13:22:09;100983.72;;;25.65;22.46
38038;BME280;23843;51.320;12.340;2022-08-07T13:24:41;100984.91;;;25.62;22.43
38038;BME280;23843;51.320;12.340;2022-08-07T13:27:12;100990.88;;;25.66;21.99
38038;BME280;23843;51.320;12.340;2022-08-07T13:29:43;100984.72;;;25.55;22.21
38038;BME280;23843;51.320;12.340;2022-08-07T13:32:14;100985.72;;;25.46;22.19
38038;BME280;23843;51.320;12.340;2022-08-07T13:34:53;100985.66;;;25.30;22.64
38038;BME280;23843;51.320;12.340;2022-08-07T13:37:26;100982.66;;;25.41;22.30
38038;BME280;23843;51.320;12.340;2022-08-07T13:40:02;100976.91;;;25.44;22.39
38038;BME280;23843;51.320;12.340;2022-08-07T13:42:29;100984.97;;;25.19;22.57
38038;BME280;23843;51.320;12.340;2022-08-07T13:44:57;100976.97;;;25.18;22.71
38038;BME280;23843;51.320;12.340;2022-08-07T13:47:26;100981.25;;;25.29;22.19
38038;BME280;23843;51.320;12.340;2022-08-07T13:49:57;100967.59;;;25.12;22.31
38038;BME280;23843;51.320;12.340;2022-08-07T13:52:25;100967.59;;;25.12;22.29
38038;BME280;23843;51.320;12.340;2022-08-07T13:54:54;100966.97;;;25.18;22.21
38038;BME280;23843;51.320;12.340;2022-08-07T13:57:24;100963.28;;;25.28;21.90
38038;BME280;23843;51.320;12.340;2022-08-07T13:59:51;100967.19;;;25.33;22.02
38038;BME280;23843;51.320;12.340;2022-08-07T14:02:20;100956.53;;;25.32;22.06
38038;BME280;23843;51.320;12.340;2022-08-07T14:04:48;100950.56;;;25.28;22.54
38038;BME280;23843;51.320;12.340;2022-08-07T14:09:41;100943.59;;;25.17;22.70
38038;BME280;23843;51.320;12.340;2022-08-07T14:12:12;100936.31;;;25.18;22.40
38038;BME280;23843;51.320;12.340;2022-08-07T14:14:47;100952.19;;;25.13;22.93
38038;BME280;23843;51.320;12.340;2022-08-07T14:17:16;100947.25;;;25.08;23.22
38038;BME280;23843;51.320;12.340;2022-08-07T14:19:50;100952.47;;;25.02;22.78
38038;BME280;23843;51.320;12.340;2022-08-07T14:22:19;100948.69;;;24.94;22.82
38038;BME280;23843;51.320;12.340;2022-08-07T14:24:50;100940.09;;;24.99;23.02
38038;BME280;23843;51.320;12.340;2022-08-07T14:27:24;100948.22;;;24.99;22.65
38038;BME280;23843;51.320;12.340;2022-08-07T14:29:55;100947.91;;;25.02;22.33
38038;BME280;23843;51.320;12.340;2022-08-07T14:32:22;100935.69;;;24.98;22.40
38038;BME280;23843;51.320;12.340;2022-08-07T14:34:49;100936.19;;;25.02;22.62
38038;BME280;23843;51.320;12.340;2022-08-07T14:37:16;100937.06;;;25.02;22.77
38038;BME280;23843;51.320;12.340;2022-08-07T14:39:44;100936.03;;;25.03;22.59
38038;BME280;23843;51.320;12.340;2022-08-07T14:42:13;100937.72;;;25.04;22.47
38038;BME280;23843;51.320;12.340;2022-08-07T14:44:43;100921.81;;;25.01;22.68
38038;BME280;23843;51.320;12.340;2022-08-07T14:47:10;100917.75;;;25.05;22.17
38038;BME280;23843;51.320;12.340;2022-08-07T14:49:37;100927.78;;;25.13;22.71
38038;BME280;23843;51.320;12.340;2022-08-07T14:52:03;100919.66;;;25.13;22.66
38038;BME280;23843;51.320;12.340;2022-08-07T14:54:32;100923.34;;;25.04;22.87
38038;BME280;23843;51.320;12.340;2022-08-07T14:56:59;100923.53;;;25.02;22.93
38038;BME280;23843;51.320;12.340;2022-08-07T14:59:27;100925.84;;;24.97;22.75
38038;BME280;23843;51.320;12.340;2022-08-07T15:01:55;100920.25;;;24.90;22.95
38038;BME280;23843;51.320;12.340;2022-08-07T15:04:22;100923.94;;;24.89;22.85
38038;BME280;23843;51.320;12.340;2022-08-07T15:06:48;100916.88;;;24.96;22.90
38038;BME280;23843;51.320;12.340;2022-08-07T15:09:16;100925.72;;;25.07;23.62
38038;BME280;23843;51.320;12.340;2022-08-07T15:11:48;100914.34;;;25.03;22.71
38038;BME280;23843;51.320;12.340;2022-08-07T15:14:19;100911.16;;;25.08;22.86
38038;BME280;23843;51.320;12.340;2022-08-07T15:16:48;100911.66;;;25.11;22.66
38038;BME280;23843;51.320;12.340;2022-08-07T15:19:18;100906.94;;;25.13;23.55
38038;BME280;23843;51.320;12.340;2022-08-07T15:21:49;100920.88;;;25.18;25.28
38038;BME280;23843;51.320;12.340;2022-08-07T15:24:18;100915.31;;;25.20;24.81
38038;BME280;23843;51.320;12.340;2022-08-07T15:26:47;100908.00;;;25.20;23.31
38038;BME280;23843;51.320;12.340;2022-08-07T15:29:16;100910.81;;;25.11;22.79
38038;BME280;23843;51.320;12.340;2022-08-07T15:31:44;100905.25;;;25.12;23.70
38038;BME280;23843;51.320;12.340;2022-08-07T15:34:13;100900.50;;;25.14;22.86
38038;BME280;23843;51.320;12.340;2022-08-07T15:36:40;100900.22;;;25.17;22.57
38038;BME280;23843;51.320;12.340;2022-08-07T15:39:07;100899.19;;;25.18;22.72
38038;BME280;23843;51.320;12.340;2022-08-07T15:41:38;100905.88;;;25.06;22.81
38038;BME280;23843;51.320;12.340;2022-08-07T15:44:21;100904.91;;;25.07;23.08
38038;BME280;23843;51.320;12.340;2022-08-07T15:46:55;100893.72;;;25.10;22.75
38038;BME280;23843;51.320;12.340;2022-08-07T15:49:28;100893.72;;;25.10;22.86
38038;BME280;23843;51.320;12.340;2022-08-07T15:51:54;100883.94;;;25.17;23.46
38038;BME280;23843;51.320;12.340;2022-08-07T15:54:22;100890.75;;;25.22;23.10
38038;BME280;23843;51.320;12.340;2022-08-07T15:56:48;100887.34;;;25.19;22.85
38038;BME280;23843;51.320;12.340;2022-08-07T15:59:15;100883.09;;;25.17;22.64
38038;BME280;23843;51.320;12.340;2022-08-07T16:01:44;100874.25;;;25.15;22.71
38038;BME280;23843;51.320;12.340;2022-08-07T16:04:14;100877.81;;;25.15;22.68
38038;BME280;23843;51.320;12.340;2022-08-07T16:06:50;100879.31;;;25.10;22.66
38038;BME280;23843;51.320;12.340;2022-08-07T16:09:22;100882.84;;;25.02;22.25
38038;BME280;23843;51.320;12.340;2022-08-07T16:11:59;100874.06;;;25.08;22.39
38038;BME280;23843;51.320;12.340;2022-08-07T16:14:39;100872.00;;;25.02;22.74
38038;BME280;23843;51.320;12.340;2022-08-07T16:17:26;100868.25;;;24.95;22.54
38038;BME280;23843;51.320;12.340;2022-08-07T16:20:00;100870.97;;;24.95;22.96
38038;BME280;23843;51.320;12.340;2022-08-07T16:22:41;100873.50;;;24.96;22.69
38038;BME280;23843;51.320;12.340;2022-08-07T16:25:17;100870.28;;;24.93;22.54
38038;BME280;23843;51.320;12.340;2022-08-07T16:27:56;100859.44;;;24.93;22.73
38038;BME280;23843;51.320;12.340;2022-08-07T16:30:26;100858.94;;;24.97;23.26
38038;BME280;23843;51.320;12.340;2022-08-07T16:32:59;100863.50;;;24.97;22.39
38038;BME280;23843;51.320;12.340;2022-08-07T16:35:32;100864.03;;;24.92;22.66
38038;BME280;23843;51.320;12.340;2022-08-07T16:38:29;100867.34;;;24.78;22.92
38038;BME280;23843;51.320;12.340;2022-08-07T16:41:17;100862.94;;;24.77;22.83
38038;BME280;23843;51.320;12.340;2022-08-07T16:44:27;100857.34;;;24.78;22.75
38038;BME280;23843;51.320;12.340;2022-08-07T16:47:09;100867.72;;;24.83;22.92
38038;BME280;23843;51.320;12.340;2022-08-07T16:50:02;100869.59;;;24.91;23.49
38038;BME280;23843;51.320;12.340;2022-08-07T16:52:57;100867.56;;;24.93;22.64
38038;BME280;23843;51.320;12.340;2022-08-07T16:55:32;100869.25;;;24.94;22.56
38038;BME280;23843;51.320;12.340;2022-08-07T16:58:15;100865.19;;;24.90;22.86
38038;BME280;23843;51.320;12.340;2022-08-07T17:00:59;100872.63;;;24.88;23.34
38038;BME280;23843;51.320;12.340;2022-08-07T17:03:26;100870.09;;;24.86;23.47
38038;BME280;23843;51.320;12.340;2022-08-07T17:06:11;100869.38;;;24.76;23.94
38038;BME280;23843;51.320;12.340;2022-08-07T17:08:40;100864.63;;;24.78;24.12
38038;BME280;23843;51.320;12.340;2022-08-07T17:11:12;100867.00;;;24.81;24.29
38038;BME280;23843;51.320;12.340;2022-08-07T17:13:54;100870.41;;;24.83;24.10
38038;BME280;23843;51.320;12.340;2022-08-07T17:16:25;100863.47;;;24.81;23.91
38038;BME280;23843;51.320;12.340;2022-08-07T17:19:02;100866.81;;;24.74;24.61
38038;BME280;23843;51.320;12.340;2022-08-07T17:21:33;100866.31;;;24.71;24.47
38038;BME280;23843;51.320;12.340;2022-08-07T17:24:22;100868.47;;;24.67;23.88
38038;BME280;23843;51.320;12.340;2022-08-07T17:26:59;100863.72;;;24.61;24.10
38038;BME280;23843;51.320;12.340;2022-08-07T17:29:37;100859.63;;;24.57;24.14
38038;BME280;23843;51.320;12.340;2022-08-07T17:32:16;100864.53;;;24.53;24.61
38038;BME280;23843;51.320;12.340;2022-08-07T17:34:46;100861.84;;;24.35;24.67
38038;BME280;23843;51.320;12.340;2022-08-07T17:37:17;100865.56;;;24.34;24.80
38038;BME280;23843;51.320;12.340;2022-08-07T17:39:46;100876.72;;;24.31;24.46